This is the latest recevied weather packets stored in our database for station/object W2BP-13. If no packets are shown the sender has not sent any weather packets the latest 10 day(s).
| Time | Temp. | Humidity | Pressure | Rain* | Wind** | Luminosity | Snow |
|---|---|---|---|---|---|---|---|
| 1777638332 | 7.22° C | 83% | 1021 hPa | 0 mm | - | - | - |
| 1777637433 | 7.22° C | 83% | 1021 hPa | 0 mm | - | - | - |
| 1777636533 | 7.78° C | 82% | 1020.9 hPa | 0 mm | - | - | - |
| 1777635633 | 8.33° C | 79% | 1021 hPa | 0 mm | - | - | - |
| 1777634732 | 8.89° C | 78% | 1021 hPa | 0 mm | - | - | - |
| 1777633833 | 8.89° C | 78% | 1021 hPa | 0 mm | - | - | - |
| 1777632933 | 8.89° C | 77% | 1020.8 hPa | 0 mm | - | - | - |
| 1777632033 | 9.44° C | 74% | 1021 hPa | 0 mm | - | - | - |
| 1777631132 | 8.89° C | 74% | 1021 hPa | 0 mm | - | - | - |
| 1777630233 | 10° C | 70% | 1021 hPa | 0 mm | - | - | - |
| 1777629333 | 10.56° C | 70% | 1021 hPa | 0 mm | - | - | - |
| 1777628433 | 10.56° C | 70% | 1021 hPa | 0 mm | - | - | - |
| 1777627533 | 10° C | 72% | 1021.3 hPa | 0 mm | - | - | - |
| 1777626632 | 11.11° C | 68% | 1021.1 hPa | 0 mm | - | - | - |
| 1777625733 | 11.11° C | 69% | 1021.3 hPa | 0 mm | - | - | - |
| 1777624833 | 11.11° C | 69% | 1021.3 hPa | 0 mm | - | - | - |
| 1777623933 | 10.56° C | 69% | 1021.3 hPa | 0 mm | - | - | - |
| 1777623033 | 10.56° C | 68% | 1021 hPa | 0 mm | - | - | - |
| 1777622133 | 11.11° C | 66% | 1021.1 hPa | 0 mm | - | - | - |
| 1777621232 | 11.67° C | 64% | 1021.1 hPa | 0 mm | - | - | - |
| 1777620333 | 12.22° C | 62% | 1021 hPa | 0 mm | - | - | - |
| 1777619432 | 12.78° C | 59% | 1020.9 hPa | 0 mm | - | - | - |
| 1777618533 | 13.33° C | 58% | 1020.8 hPa | 0 mm | - | - | - |
| 1777617632 | 12.78° C | 59% | 1020.7 hPa | 0 mm | - | - | - |
| 1777616733 | 13.33° C | 58% | 1020.7 hPa | 0 mm | - | - | - |
* Rain latest hour (hover to see other rain measurements)
** Current wind speed in m/s (hover to see current wind gust speed)